createdAt,value
2019-03-05T00:01:26.300Z,98661.77
2019-03-05T00:03:53.696Z,98666.86
2019-03-05T00:06:21.217Z,98675.47
2019-03-05T00:08:48.030Z,98668.45
2019-03-05T00:11:15.024Z,98663.21
2019-03-05T00:13:42.562Z,98674.08
2019-03-05T00:16:10.293Z,98663.12
2019-03-05T00:18:37.305Z,98664.85
2019-03-05T00:21:04.610Z,98669.84
2019-03-05T00:23:48.717Z,98665.00
2019-03-05T00:26:18.622Z,98670.99
2019-03-05T00:29:26.667Z,98671.38
2019-03-05T00:31:54.606Z,98673.07
2019-03-05T00:35:02.426Z,98686.44
2019-03-05T00:38:01.942Z,98673.26
2019-03-05T00:41:05.719Z,98652.25
2019-03-05T00:43:45.573Z,98694.16
2019-03-05T00:46:19.162Z,98687.31
2019-03-05T00:49:40.523Z,98698.02
2019-03-05T00:52:41.221Z,98696.72
2019-03-05T00:55:37.238Z,98700.06
2019-03-05T00:58:18.133Z,98703.29
2019-03-05T01:01:13.910Z,98703.89
2019-03-05T01:03:54.799Z,98703.29
2019-03-05T01:06:22.897Z,98716.66
2019-03-05T01:08:49.971Z,98722.09
2019-03-05T01:11:17.709Z,98710.97
2019-03-05T01:13:44.426Z,98714.22
2019-03-05T01:16:13.628Z,98724.82
2019-03-05T01:18:40.421Z,98725.19
2019-03-05T01:21:07.123Z,98727.42
2019-03-05T01:23:34.224Z,98734.45
2019-03-05T01:26:00.997Z,98730.52
2019-03-05T01:28:27.796Z,98729.02
2019-03-05T01:31:17.281Z,98739.63
2019-03-05T01:33:51.534Z,98741.93
2019-03-05T01:36:21.061Z,98730.00
2019-03-05T01:39:10.238Z,98722.44
2019-03-05T01:41:37.407Z,98735.39
2019-03-05T01:44:04.195Z,98745.50
2019-03-05T01:46:30.886Z,98732.05
2019-03-05T01:48:57.632Z,98739.12
2019-03-05T01:51:24.461Z,98734.14
2019-03-05T01:53:51.174Z,98744.11
2019-03-05T01:56:18.114Z,98731.65
2019-03-05T01:58:44.777Z,98743.57
2019-03-05T02:01:11.580Z,98740.28
2019-03-05T02:03:38.236Z,98745.76
2019-03-05T02:06:05.094Z,98734.59
2019-03-05T02:08:32.052Z,98743.31
2019-03-05T02:10:58.841Z,98739.30
2019-03-05T02:13:25.724Z,98759.34
2019-03-05T02:15:52.511Z,98747.48
2019-03-05T02:18:21.561Z,98755.20
2019-03-05T02:20:49.465Z,98753.20
2019-03-05T02:23:20.860Z,98747.41
2019-03-05T02:26:01.609Z,98748.98
2019-03-05T02:29:11.969Z,98750.16
2019-03-05T02:32:16.927Z,98740.11
2019-03-05T02:35:30.573Z,98750.76
2019-03-05T02:38:23.600Z,98749.23
2019-03-05T02:41:30.481Z,98759.48
2019-03-05T02:44:23.080Z,98752.72
2019-03-05T02:47:33.702Z,98765.89
2019-03-05T02:50:51.504Z,98773.20
2019-03-05T02:53:48.380Z,98760.75
2019-03-05T02:56:46.246Z,98756.38
2019-03-05T02:59:12.211Z,98751.11
2019-03-05T03:02:16.619Z,98761.97
2019-03-05T03:04:46.316Z,98761.97
2019-03-05T03:07:13.112Z,98752.91
2019-03-05T03:10:09.598Z,98768.05
2019-03-05T03:12:36.796Z,98760.59
2019-03-05T03:15:06.142Z,98757.93
2019-03-05T03:17:32.837Z,98765.65
2019-03-05T03:19:59.501Z,98759.98
2019-03-05T03:22:26.297Z,98758.73
2019-03-05T03:24:52.972Z,98766.19
2019-03-05T03:27:19.816Z,98762.91
2019-03-05T03:29:46.454Z,98771.06
2019-03-05T03:32:13.211Z,98767.03
2019-03-05T03:34:40.041Z,98771.00
2019-03-05T03:37:06.762Z,98768.45
2019-03-05T03:39:33.458Z,98781.25
2019-03-05T03:42:00.146Z,98773.33
2019-03-05T03:44:26.933Z,98775.36
2019-03-05T03:46:54.004Z,98775.66
2019-03-05T03:49:20.727Z,98786.70
2019-03-05T03:51:47.382Z,98790.53
2019-03-05T03:54:15.641Z,98783.30
2019-03-05T03:56:42.327Z,98784.44
2019-03-05T03:59:09.000Z,98796.98
2019-03-05T04:01:35.798Z,98784.05
2019-03-05T04:04:02.583Z,98796.48
2019-03-05T04:06:29.336Z,98797.73
2019-03-05T04:08:56.142Z,98803.95
2019-03-05T04:11:22.934Z,98809.42
2019-03-05T04:13:49.622Z,98824.58
2019-03-05T04:16:16.401Z,98814.07
2019-03-05T04:18:43.127Z,98815.70
2019-03-05T04:21:09.815Z,98824.32
2019-03-05T04:23:37.616Z,98828.67
2019-03-05T04:26:04.475Z,98837.55
2019-03-05T04:28:31.434Z,98831.65
2019-03-05T04:30:58.085Z,98841.60
2019-03-05T04:33:24.762Z,98843.86
2019-03-05T04:35:51.449Z,98845.47
2019-03-05T04:38:18.125Z,98861.97
2019-03-05T04:40:49.397Z,98856.43
2019-03-05T04:43:23.787Z,98849.69
2019-03-05T04:46:20.331Z,98856.98
2019-03-05T04:49:11.019Z,98863.99
2019-03-05T04:51:55.139Z,98865.30
2019-03-05T04:54:35.836Z,98867.73
2019-03-05T04:57:04.694Z,98868.18
2019-03-05T04:59:31.377Z,98867.27
2019-03-05T05:01:58.159Z,98867.63
2019-03-05T05:04:25.022Z,98889.16
2019-03-05T05:06:51.742Z,98871.85
2019-03-05T05:09:18.429Z,98884.58
2019-03-05T05:11:45.147Z,98885.19
2019-03-05T05:14:12.192Z,98876.05
2019-03-05T05:16:38.865Z,98870.61
2019-03-05T05:19:05.591Z,98883.20
2019-03-05T05:21:32.246Z,98891.98
2019-03-05T05:23:59.024Z,98893.03
2019-03-05T05:26:25.813Z,98891.05
2019-03-05T05:28:52.505Z,98896.93
2019-03-05T05:31:19.297Z,98904.88
2019-03-05T05:33:46.125Z,98912.97
2019-03-05T05:36:12.790Z,98920.98
2019-03-05T05:38:39.496Z,98924.04
2019-03-05T05:41:06.161Z,98906.30
2019-03-05T05:43:32.951Z,98908.60
2019-03-05T05:45:59.733Z,98917.13
2019-03-05T05:48:26.522Z,98919.67
2019-03-05T05:50:53.219Z,98924.64
2019-03-05T05:53:19.916Z,98922.69
2019-03-05T05:55:46.933Z,98929.94
2019-03-05T05:58:13.657Z,98926.70
2019-03-05T06:00:43.114Z,98933.66
2019-03-05T06:03:09.982Z,98940.41
2019-03-05T06:05:36.763Z,98935.78
2019-03-05T06:08:03.573Z,98951.94
2019-03-05T06:10:30.235Z,98954.28
2019-03-05T06:12:56.902Z,98952.47
2019-03-05T06:15:23.701Z,98954.45
2019-03-05T06:17:50.385Z,98962.87
2019-03-05T06:20:17.172Z,98960.03
2019-03-05T06:22:43.984Z,98971.22
2019-03-05T06:25:10.868Z,98965.00
2019-03-05T06:27:37.643Z,98972.17
2019-03-05T06:30:05.719Z,98978.39
2019-03-05T06:32:32.480Z,98987.63
2019-03-05T06:34:59.153Z,98993.63
2019-03-05T06:37:25.861Z,98986.95
2019-03-05T06:39:52.530Z,99004.70
2019-03-05T06:42:19.529Z,98998.56
2019-03-05T06:44:47.295Z,99004.39
2019-03-05T06:47:14.073Z,98991.67
2019-03-05T06:49:40.908Z,99005.91
2019-03-05T06:52:07.577Z,99013.16
2019-03-05T06:54:34.364Z,99010.56
2019-03-05T06:57:01.180Z,99018.13
2019-03-05T06:59:27.833Z,99027.13
2019-03-05T07:01:54.493Z,99020.80
2019-03-05T07:04:21.454Z,99028.65
2019-03-05T07:06:52.424Z,99027.19
2019-03-05T07:09:45.929Z,99036.53
2019-03-05T07:12:17.325Z,99045.45
2019-03-05T07:15:08.498Z,99037.14
2019-03-05T07:17:42.290Z,99063.04
2019-03-05T07:20:51.347Z,99048.19
2019-03-05T07:23:27.350Z,99058.14
2019-03-05T07:25:54.011Z,99052.48
2019-03-05T07:28:21.010Z,99055.53
2019-03-05T07:30:47.807Z,99070.75
2019-03-05T07:33:14.601Z,99066.55
2019-03-05T07:35:41.413Z,99067.88
2019-03-05T07:38:08.125Z,99073.31
2019-03-05T07:40:34.794Z,99069.36
2019-03-05T07:43:01.603Z,99071.00
2019-03-05T07:45:28.381Z,99070.78
2019-03-05T07:47:55.170Z,99092.57
2019-03-05T07:50:22.070Z,99086.34
2019-03-05T07:52:48.789Z,99087.45
2019-03-05T07:55:16.800Z,99081.30
2019-03-05T07:57:44.682Z,99097.83
2019-03-05T08:00:14.609Z,99107.03
2019-03-05T08:02:41.383Z,99112.75
2019-03-05T08:05:10.202Z,99111.67
2019-03-05T08:07:37.200Z,99110.83
2019-03-05T08:10:12.214Z,99113.48
2019-03-05T08:13:26.354Z,99120.24
2019-03-05T08:16:01.970Z,99105.80
2019-03-05T08:18:22.653Z,99122.61
2019-03-05T08:20:49.410Z,99122.90
2019-03-05T08:23:16.197Z,99131.69
2019-03-05T08:25:42.987Z,99139.57
2019-03-05T08:28:10.108Z,99138.91
2019-03-05T08:30:38.254Z,99137.02
2019-03-05T08:33:05.050Z,99137.91
2019-03-05T08:35:31.828Z,99151.56
2019-03-05T08:37:58.514Z,99140.98
2019-03-05T08:40:25.311Z,99151.23
2019-03-05T08:42:52.012Z,99145.34
2019-03-05T08:45:28.724Z,99167.12
2019-03-05T08:47:47.709Z,99168.04
2019-03-05T08:50:14.469Z,99169.83
2019-03-05T08:52:41.177Z,99174.59
2019-03-05T08:55:08.342Z,99186.02
2019-03-05T08:57:35.072Z,99174.88
2019-03-05T09:00:02.026Z,99177.25
2019-03-05T09:02:29.729Z,99182.38
2019-03-05T09:04:56.412Z,99181.45
2019-03-05T09:07:23.204Z,99184.11
2019-03-05T09:09:50.149Z,99206.03
2019-03-05T09:12:16.946Z,99190.63
2019-03-05T09:14:45.120Z,99193.52
2019-03-05T09:17:12.215Z,99199.00
2019-03-05T09:19:38.917Z,99195.71
2019-03-05T09:22:05.726Z,99216.31
2019-03-05T09:24:32.455Z,99195.54
2019-03-05T09:26:59.955Z,99204.69
2019-03-05T09:29:26.639Z,99214.38
2019-03-05T09:31:53.334Z,99212.27
2019-03-05T09:34:20.023Z,99208.81
2019-03-05T09:36:50.965Z,99214.55
2019-03-05T09:39:15.485Z,99220.70
2019-03-05T09:41:42.790Z,99224.44
2019-03-05T09:44:09.453Z,99224.06
2019-03-05T09:46:36.140Z,99230.30
2019-03-05T09:49:02.956Z,99236.98
2019-03-05T09:51:29.646Z,99224.16
2019-03-05T09:53:56.423Z,99240.79
2019-03-05T09:56:23.218Z,99236.41
2019-03-05T09:58:49.894Z,99240.14
2019-03-05T10:01:16.797Z,99239.13
2019-03-05T10:03:43.520Z,99253.41
2019-03-05T10:06:10.373Z,99264.73
2019-03-05T10:08:37.186Z,99257.92
2019-03-05T10:11:05.230Z,99264.59
2019-03-05T10:13:32.021Z,99262.67
2019-03-05T10:15:58.837Z,99256.86
2019-03-05T10:18:25.613Z,99275.92
2019-03-05T10:20:52.495Z,99272.59
2019-03-05T10:23:19.399Z,99280.31
2019-03-05T10:25:46.078Z,99268.47
2019-03-05T10:28:13.874Z,99290.45
2019-03-05T10:30:41.461Z,99287.52
2019-03-05T10:33:08.871Z,99294.73
2019-03-05T10:35:35.670Z,99290.72
2019-03-05T10:38:05.027Z,99287.67
2019-03-05T10:40:33.588Z,99285.45
2019-03-05T10:43:08.429Z,99285.71
2019-03-05T10:45:32.507Z,99291.75
2019-03-05T10:47:59.281Z,99287.97
2019-03-05T10:50:26.667Z,99296.52
2019-03-05T10:52:53.677Z,99315.20
2019-03-05T10:55:26.213Z,99310.64
2019-03-05T10:57:49.444Z,99310.10
2019-03-05T11:00:22.900Z,99324.84
2019-03-05T11:02:50.264Z,99319.09
2019-03-05T11:05:17.040Z,99322.73
2019-03-05T11:07:43.949Z,99325.77
2019-03-05T11:10:11.114Z,99327.71
2019-03-05T11:12:38.778Z,99318.43
2019-03-05T11:15:08.957Z,99333.92
2019-03-05T11:17:36.095Z,99331.33
2019-03-05T11:20:05.026Z,99330.28
2019-03-05T11:22:33.142Z,99337.55
2019-03-05T11:24:59.945Z,99340.69
2019-03-05T11:27:26.709Z,99335.52
2019-03-05T11:29:53.387Z,99338.86
2019-03-05T11:32:20.182Z,99344.80
2019-03-05T11:34:46.953Z,99349.00
2019-03-05T11:37:13.718Z,99350.81
2019-03-05T11:39:40.530Z,99349.17
2019-03-05T11:42:07.514Z,99356.82
2019-03-05T11:44:34.758Z,99362.73
2019-03-05T11:47:04.185Z,99370.91
2019-03-05T11:49:31.258Z,99380.55
2019-03-05T11:51:57.964Z,99385.91
2019-03-05T11:54:24.726Z,99384.67
2019-03-05T11:56:52.520Z,99384.00
2019-03-05T11:59:19.198Z,99386.88
2019-03-05T12:01:48.316Z,99404.17
2019-03-05T12:04:15.506Z,99405.02
2019-03-05T12:06:42.289Z,99400.23
2019-03-05T12:09:09.386Z,99400.90
2019-03-05T12:11:36.474Z,99402.25
2019-03-05T12:14:03.264Z,99400.98
2019-03-05T12:16:30.063Z,99416.09
2019-03-05T12:18:56.759Z,99405.66
2019-03-05T12:21:23.651Z,99419.16
2019-03-05T12:23:50.999Z,99418.02
2019-03-05T12:26:17.650Z,99406.62
2019-03-05T12:28:44.617Z,99418.61
2019-03-05T12:31:11.522Z,99425.31
2019-03-05T12:33:38.548Z,99429.89
2019-03-05T12:36:05.613Z,99431.36
2019-03-05T12:38:32.394Z,99423.43
2019-03-05T12:40:59.177Z,99436.26
2019-03-05T12:43:25.961Z,99448.23
2019-03-05T12:45:52.730Z,99446.76
2019-03-05T12:48:19.403Z,99445.67
2019-03-05T12:50:46.181Z,99443.95
2019-03-05T12:53:13.046Z,99443.72
2019-03-05T12:55:39.991Z,99440.86
2019-03-05T12:58:06.770Z,99441.16
2019-03-05T13:00:33.802Z,99451.77
2019-03-05T13:03:00.673Z,99454.92
2019-03-05T13:05:27.461Z,99456.84
2019-03-05T13:07:56.391Z,99448.55
2019-03-05T13:10:22.974Z,99466.63
2019-03-05T13:12:49.733Z,99472.77
2019-03-05T13:15:18.964Z,99469.04
2019-03-05T13:17:47.233Z,99473.54
2019-03-05T13:20:15.711Z,99478.34
2019-03-05T13:22:42.682Z,99489.16
2019-03-05T13:25:11.030Z,99487.05
2019-03-05T13:27:37.823Z,99497.68
2019-03-05T13:30:10.262Z,99496.55
2019-03-05T13:32:36.810Z,99504.59
2019-03-05T13:35:04.442Z,99510.98
2019-03-05T13:37:31.353Z,99520.39
2019-03-05T13:39:59.114Z,99530.63
2019-03-05T13:42:29.120Z,99535.63
2019-03-05T13:44:57.197Z,99542.42
2019-03-05T13:47:23.502Z,99535.63
2019-03-05T13:50:24.194Z,99545.08
2019-03-05T13:53:22.953Z,99549.59
2019-03-05T13:56:18.359Z,99552.20
2019-03-05T13:59:09.773Z,99560.98
2019-03-05T14:01:36.544Z,99553.48
2019-03-05T14:04:07.134Z,99569.64
2019-03-05T14:07:15.251Z,99572.35
2019-03-05T14:09:41.221Z,99582.80
2019-03-05T14:12:07.991Z,99579.36
2019-03-05T14:14:34.701Z,99605.82
2019-03-05T14:17:12.468Z,99588.54
2019-03-05T14:19:39.294Z,99528.34
2019-03-05T14:22:06.262Z,99607.20
2019-03-05T14:24:34.415Z,99604.59
2019-03-05T14:27:01.210Z,99615.63
2019-03-05T14:29:29.343Z,99618.56
2019-03-05T14:31:56.204Z,99614.36
2019-03-05T14:34:23.066Z,99626.43
2019-03-05T14:36:49.878Z,99623.50
2019-03-05T14:39:25.019Z,99622.25
2019-03-05T14:41:52.249Z,99633.94
2019-03-05T14:44:19.098Z,99629.03
2019-03-05T14:46:46.938Z,99634.66
2019-03-05T14:49:13.801Z,99630.00
2019-03-05T14:51:40.538Z,99629.06
2019-03-05T14:54:07.343Z,99631.06
2019-03-05T14:56:34.012Z,99624.64
2019-03-05T14:59:00.775Z,99633.06
2019-03-05T15:01:27.842Z,99625.39
2019-03-05T15:03:54.598Z,99629.89
2019-03-05T15:06:21.438Z,99642.69
2019-03-05T15:08:48.280Z,99642.55
2019-03-05T15:11:14.930Z,99647.34
2019-03-05T15:13:41.612Z,99648.41
2019-03-05T15:16:08.290Z,99648.10
2019-03-05T15:18:35.624Z,99658.50
2019-03-05T15:21:02.346Z,99664.02
2019-03-05T15:23:29.249Z,99648.91
2019-03-05T15:25:55.963Z,99669.09
2019-03-05T15:28:22.761Z,99670.75
2019-03-05T15:30:49.465Z,99676.19
2019-03-05T15:33:16.186Z,99682.19
2019-03-05T15:35:43.008Z,99684.57
2019-03-05T15:38:09.839Z,99688.90
2019-03-05T15:40:36.657Z,99689.98
2019-03-05T15:43:03.455Z,99699.39
2019-03-05T15:45:30.116Z,99694.53
2019-03-05T15:47:56.951Z,99709.77
2019-03-05T15:50:23.823Z,99704.98
2019-03-05T15:52:50.658Z,99705.46
2019-03-05T15:55:17.518Z,99709.48
2019-03-05T15:57:44.527Z,99724.64
2019-03-05T16:00:14.582Z,99720.72
2019-03-05T16:02:41.568Z,99725.58
2019-03-05T16:05:12.193Z,99740.33
2019-03-05T16:07:37.462Z,99732.35
2019-03-05T16:10:04.528Z,99724.23
2019-03-05T16:12:31.516Z,99728.44
2019-03-05T16:14:58.200Z,99736.94
2019-03-05T16:17:28.224Z,99741.34
2019-03-05T16:19:53.618Z,99739.99
2019-03-05T16:22:20.342Z,99745.48
2019-03-05T16:24:47.424Z,99756.73
2019-03-05T16:27:42.348Z,99752.97
2019-03-05T16:30:40.022Z,99762.30
2019-03-05T16:33:23.856Z,99769.21
2019-03-05T16:36:16.105Z,99771.81
2019-03-05T16:38:55.137Z,99772.47
2019-03-05T16:41:44.354Z,99779.45
2019-03-05T16:44:32.399Z,99779.85
2019-03-05T16:47:17.583Z,99786.09
2019-03-05T16:58:19.799Z,99793.81
2019-03-05T17:21:30.687Z,99831.08
2019-03-05T17:29:01.908Z,99834.11
2019-03-05T17:43:33.623Z,99867.78
2019-03-05T17:57:57.259Z,99888.03
2019-03-05T18:00:31.564Z,99894.81
2019-03-05T18:02:58.667Z,99898.29
2019-03-05T18:05:25.425Z,99901.05
2019-03-05T18:07:52.194Z,99899.36
2019-03-05T18:10:19.257Z,99906.50
2019-03-05T18:12:46.238Z,99908.94
2019-03-05T18:15:13.475Z,99912.74
2019-03-05T18:17:40.330Z,99917.18
2019-03-05T18:20:08.954Z,99925.17
2019-03-05T18:22:35.746Z,99932.56
2019-03-05T18:25:03.867Z,99930.68
2019-03-05T18:27:31.162Z,99932.95
2019-03-05T18:29:57.930Z,99937.94
2019-03-05T18:32:25.323Z,99940.85
2019-03-05T18:34:52.047Z,99940.76
2019-03-05T18:37:19.422Z,99937.23
2019-03-05T18:39:48.062Z,99945.73
2019-03-05T18:42:15.979Z,99948.17
2019-03-05T18:44:42.837Z,99950.56
2019-03-05T18:47:09.530Z,99939.81
2019-03-05T18:49:36.226Z,99947.31
2019-03-05T18:52:03.382Z,99956.19
2019-03-05T18:54:30.043Z,99950.28
2019-03-05T18:56:56.947Z,99954.34
2019-03-05T18:59:23.634Z,99959.70
2019-03-05T19:01:50.428Z,99962.89
2019-03-05T19:04:17.149Z,99969.77
2019-03-05T19:06:44.229Z,99973.16
2019-03-05T19:09:12.207Z,99986.13
2019-03-05T19:11:40.253Z,99987.15
2019-03-05T19:14:07.408Z,99986.24
2019-03-05T19:16:34.293Z,99993.93
2019-03-05T19:19:01.318Z,99994.92
2019-03-05T19:21:29.246Z,99991.57
2019-03-05T19:23:56.121Z,100000.69
2019-03-05T19:26:23.585Z,99999.97
2019-03-05T19:28:50.386Z,100003.22
2019-03-05T19:31:17.335Z,100003.86
2019-03-05T19:33:44.055Z,100008.91
2019-03-05T19:36:10.867Z,100008.83
2019-03-05T19:38:37.552Z,100015.89
2019-03-05T19:41:07.565Z,100020.11
2019-03-05T19:43:34.437Z,100015.75
2019-03-05T19:46:01.228Z,100015.75
2019-03-05T19:48:28.127Z,100026.33
2019-03-05T19:50:54.909Z,100029.10
2019-03-05T19:53:21.580Z,100029.50
2019-03-05T19:55:48.373Z,100035.49
2019-03-05T19:58:15.221Z,100036.43
2019-03-05T20:01:00.008Z,100038.16
2019-03-05T20:03:27.034Z,100043.23
2019-03-05T20:05:54.395Z,100040.61
2019-03-05T20:08:21.188Z,100048.41
2019-03-05T20:10:48.165Z,100051.94
2019-03-05T20:13:15.275Z,100049.14
2019-03-05T20:15:42.188Z,100053.45
2019-03-05T20:18:09.191Z,100057.16
2019-03-05T20:20:35.963Z,100058.66
2019-03-05T20:23:02.834Z,100064.58
2019-03-05T20:25:29.996Z,100071.36
2019-03-05T20:27:56.912Z,100056.36
2019-03-05T20:30:23.891Z,100079.06
2019-03-05T20:32:50.870Z,100078.69
2019-03-05T20:35:17.741Z,100083.64
2019-03-05T20:37:45.069Z,100087.81
2019-03-05T20:40:13.766Z,100086.95
2019-03-05T20:42:41.081Z,100090.31
2019-03-05T20:45:11.249Z,100094.76
2019-03-05T20:47:38.058Z,100096.94
2019-03-05T20:50:05.350Z,100093.06
2019-03-05T20:52:33.552Z,100095.16
2019-03-05T20:55:01.810Z,100101.09
2019-03-05T20:57:29.020Z,100102.61
2019-03-05T20:59:55.705Z,100098.90
2019-03-05T21:02:22.513Z,100103.40
2019-03-05T21:04:49.332Z,100108.37
2019-03-05T21:07:16.517Z,100099.91
2019-03-05T21:09:43.605Z,100105.41
2019-03-05T21:12:10.397Z,100109.66
2019-03-05T21:14:37.161Z,100110.63
2019-03-05T21:17:03.953Z,100111.91
2019-03-05T21:19:30.727Z,100109.53
2019-03-05T21:21:57.613Z,100123.48
2019-03-05T21:24:24.500Z,100120.70
2019-03-05T21:26:51.347Z,100128.02
2019-03-05T21:29:18.350Z,100128.87
2019-03-05T21:31:45.601Z,100133.47
2019-03-05T21:34:12.782Z,100130.12
2019-03-05T21:36:39.828Z,100135.37
2019-03-05T21:39:12.338Z,100128.16
2019-03-05T21:41:39.430Z,100130.97
2019-03-05T21:44:06.146Z,100131.94
2019-03-05T21:46:32.817Z,100132.31
2019-03-05T21:48:59.594Z,100132.83
2019-03-05T21:51:26.570Z,100131.22
2019-03-05T21:53:53.407Z,100131.73
2019-03-05T21:56:20.205Z,100128.48
2019-03-05T21:58:47.050Z,100134.34
2019-03-05T22:01:13.834Z,100144.31
2019-03-05T22:03:41.723Z,100136.97
2019-03-05T22:06:08.503Z,100142.83
2019-03-05T22:08:35.398Z,100149.20
2019-03-05T22:11:02.814Z,100149.56
2019-03-05T22:13:29.710Z,100155.37
2019-03-05T22:15:56.474Z,100155.64
2019-03-05T22:18:23.309Z,100156.65
2019-03-05T22:20:50.269Z,100151.78
2019-03-05T22:23:17.110Z,100158.62
2019-03-05T22:25:43.810Z,100158.48
2019-03-05T22:28:10.474Z,100157.01
2019-03-05T22:30:37.675Z,100155.63
2019-03-05T22:33:04.863Z,100157.13
2019-03-05T22:35:32.462Z,100159.11
2019-03-05T22:37:59.364Z,100156.73
2019-03-05T22:40:26.281Z,100151.52
2019-03-05T22:42:53.133Z,100151.66
2019-03-05T22:45:20.959Z,100155.63
2019-03-05T22:47:49.635Z,100162.11
2019-03-05T22:50:16.717Z,100167.08
2019-03-05T22:52:43.605Z,100165.32
2019-03-05T22:55:10.816Z,100161.75
2019-03-05T22:57:37.734Z,100158.02
2019-03-05T23:00:09.135Z,100159.99
2019-03-05T23:02:38.123Z,100169.03
2019-03-05T23:05:07.489Z,100169.31
2019-03-05T23:07:35.087Z,100167.59
2019-03-05T23:10:02.049Z,100172.79
2019-03-05T23:12:30.645Z,100168.95
2019-03-05T23:14:58.765Z,100171.41
2019-03-05T23:17:25.699Z,100169.55
2019-03-05T23:19:52.601Z,100178.52
2019-03-05T23:22:19.528Z,100177.01
2019-03-05T23:24:46.412Z,100176.02
2019-03-05T23:27:13.412Z,100175.77
2019-03-05T23:29:43.287Z,100173.80
2019-03-05T23:32:10.524Z,100171.81
2019-03-05T23:34:38.181Z,100171.81
2019-03-05T23:37:05.171Z,100177.52
2019-03-05T23:39:32.138Z,100184.23
2019-03-05T23:41:59.355Z,100181.38
2019-03-05T23:44:26.304Z,100188.84
2019-03-05T23:46:53.432Z,100191.92
2019-03-05T23:49:20.229Z,100188.32
2019-03-05T23:51:47.501Z,100177.05
2019-03-05T23:54:14.181Z,100184.47
2019-03-05T23:56:41.062Z,100189.69
2019-03-05T23:59:07.733Z,100191.43
